| Date | Time | Temp. (oF) | Dew Point (oF) | Rel. Hum. (%) | Press. (in.) | Wind Dir. (deg.) | Wind Speed (mph) | Hourly Rainfall (i n.) |
|
|---|---|---|---|---|---|---|---|---|---|
| 1 | 08/08 | 24:00 | 76 | 61 | 60 | 30.23 | 130 | 2 | 0.00 |
| 2 | 08/07 | 23:00 | 76 | 59 | 57 | 30.23 | 130 | 1 | 0.00 |
| 3 | 08/07 | 22:00 | 77 | 58 | 53 | 30.22 | 130 | 1 | 0.00 |
| 4 | 08/07 | 21:00 | 78 | 57 | 50 | 30.19 | 130 | 1 | 0.00 |
| 5 | 08/07 | 20:00 | 80 | 58 | 49 | 30.16 | 130 | 1 | 0.00 |
| 6 | 08/07 | 19:00 | 82 | 60 | 49 | 30.18 | 140 | 2 | 0.00 |
| 7 | 08/07 | 18:00 | 84 | 60 | 46 | 30.20 | 140 | 6 | 0.00 |
| 8 | 08/07 | 17:00 | 84 | 58 | 43 | 30.21 | 130 | 7 | 0.00 |
| 9 | 08/07 | 16:00 | 85 | 57 | 40 | 30.23 | 290 | 7 | 0.00 |
| 10 | 08/07 | 15:00 | 84 | 56 | 39 | 30.24 | 310 | 6 | 0.00 |
| 11 | 08/07 | 14:00 | 86 | 54 | 35 | 30.26 | 290 | 6 | 0.00 |
| 12 | 08/07 | 13:00 | 83 | 54 | 38 | 30.32 | 10 | 0 | 0.00 |
| 13 | 08/07 | 12:00 | 80 | 52 | 39 | 30.34 | 270 | 6 | 0.00 |
| 14 | 08/07 | 11:00 | 77 | 49 | 38 | 30.35 | 350 | 1 | 0.00 |
| 15 | 08/07 | 10:00 | 73 | 50 | 45 | 30.35 | 310 | 1 | 0.00 |
| 16 | 08/07 | 09:00 | 72 | 53 | 52 | 30.33 | 30 | 2 | 0.00 |
| 17 | 08/07 | 08:00 | 70 | 54 | 58 | 30.33 | 330 | 4 | 0.00 |
| 18 | 08/07 | 07:00 | 68 | 58 | 73 | 30.33 | 330 | 0 | 0.00 |
| 19 | 08/07 | 06:00 | 69 | 56 | 64 | 30.31 | 330 | 0 | 0.00 |
| 20 | 08/07 | 05:00 | 70 | 56 | 62 | 30.30 | 330 | 1 | 0.00 |
| 21 | 08/07 | 04:00 | 69 | 59 | 72 | 30.28 | 330 | 0 | 0.00 |
| 22 | 08/07 | 03:00 | 70 | 58 | 67 | 30.26 | 330 | 1 | 0.00 |
| 23 | 08/07 | 02:00 | 71 | 55 | 59 | 30.25 | 330 | 0 | 0.00 |
| 24 | 08/07 | 01:00 | 74 | 52 | 48 | 30.23 | 330 | 1 | 0.00 |